sensor_id;sensor_type;location;lat;lon;timestamp;pressure;altitude;pressure_sealevel;temperature;humidity
67740;BME280;54536;50.090;14.420;2023-05-23T00:00:57;98985.38;;;21.39;44.50
67740;BME280;54536;50.090;14.420;2023-05-23T00:03:25;98988.28;;;21.24;45.47
67740;BME280;54536;50.090;14.420;2023-05-23T00:05:51;98994.66;;;21.30;44.96
67740;BME280;54536;50.090;14.420;2023-05-23T00:08:18;98990.53;;;21.27;45.15
67740;BME280;54536;50.090;14.420;2023-05-23T00:10:44;98999.25;;;21.16;45.77
67740;BME280;54536;50.090;14.420;2023-05-23T00:13:11;98989.94;;;21.25;46.18
67740;BME280;54536;50.090;14.420;2023-05-23T00:15:39;98993.88;;;21.23;45.77
67740;BME280;54536;50.090;14.420;2023-05-23T00:18:07;99000.88;;;21.17;46.08
67740;BME280;54536;50.090;14.420;2023-05-23T00:20:37;98999.88;;;21.12;46.20
67740;BME280;54536;50.090;14.420;2023-05-23T00:23:09;99000.19;;;20.97;47.12
67740;BME280;54536;50.090;14.420;2023-05-23T00:25:36;99001.53;;;21.13;46.13
67740;BME280;54536;50.090;14.420;2023-05-23T00:28:03;99000.31;;;21.09;46.73
67740;BME280;54536;50.090;14.420;2023-05-23T00:30:31;98999.91;;;21.05;46.92
67740;BME280;54536;50.090;14.420;2023-05-23T00:32:58;98998.72;;;21.01;46.87
67740;BME280;54536;50.090;14.420;2023-05-23T00:35:25;98999.53;;;21.01;47.06
67740;BME280;54536;50.090;14.420;2023-05-23T00:37:54;98989.91;;;20.94;47.20
67740;BME280;54536;50.090;14.420;2023-05-23T00:40:21;98990.97;;;20.93;47.03
67740;BME280;54536;50.090;14.420;2023-05-23T00:42:48;98985.16;;;20.96;46.98
67740;BME280;54536;50.090;14.420;2023-05-23T00:45:15;98994.66;;;20.85;46.62
67740;BME280;54536;50.090;14.420;2023-05-23T00:47:43;98991.88;;;20.73;47.02
67740;BME280;54536;50.090;14.420;2023-05-23T00:50:14;98988.16;;;20.74;47.51
67740;BME280;54536;50.090;14.420;2023-05-23T00:52:45;98987.09;;;20.75;46.81
67740;BME280;54536;50.090;14.420;2023-05-23T00:55:13;98992.47;;;20.69;47.31
67740;BME280;54536;50.090;14.420;2023-05-23T00:57:40;98989.81;;;20.69;46.92
67740;BME280;54536;50.090;14.420;2023-05-23T01:00:11;98988.81;;;20.56;47.79
67740;BME280;54536;50.090;14.420;2023-05-23T01:02:43;98983.41;;;20.70;46.85
67740;BME280;54536;50.090;14.420;2023-05-23T01:05:11;98988.75;;;20.70;47.61
67740;BME280;54536;50.090;14.420;2023-05-23T01:07:40;98981.38;;;20.72;47.10
67740;BME280;54536;50.090;14.420;2023-05-23T01:10:08;98965.56;;;20.70;47.64
67740;BME280;54536;50.090;14.420;2023-05-23T01:20:31;98957.41;;;20.45;48.36
67740;BME280;54536;50.090;14.420;2023-05-23T01:26:02;98955.94;;;20.49;48.22
67740;BME280;54536;50.090;14.420;2023-05-23T01:28:41;98955.34;;;20.47;48.28
67740;BME280;54536;50.090;14.420;2023-05-23T01:31:09;98950.44;;;20.44;48.29
67740;BME280;54536;50.090;14.420;2023-05-23T01:33:39;98958.25;;;20.39;48.36
67740;BME280;54536;50.090;14.420;2023-05-23T01:36:07;98959.47;;;20.37;49.09
67740;BME280;54536;50.090;14.420;2023-05-23T01:38:34;98966.88;;;20.41;49.21
67740;BME280;54536;50.090;14.420;2023-05-23T01:41:00;98957.84;;;20.35;49.37
67740;BME280;54536;50.090;14.420;2023-05-23T01:43:27;98955.41;;;20.34;49.50
67740;BME280;54536;50.090;14.420;2023-05-23T01:45:55;98965.47;;;20.32;49.11
67740;BME280;54536;50.090;14.420;2023-05-23T01:48:24;98971.84;;;20.31;49.37
67740;BME280;54536;50.090;14.420;2023-05-23T01:50:52;98975.91;;;20.33;49.35
67740;BME280;54536;50.090;14.420;2023-05-23T01:53:21;98985.59;;;20.34;49.56
67740;BME280;54536;50.090;14.420;2023-05-23T01:55:48;98974.28;;;20.32;49.41
67740;BME280;54536;50.090;14.420;2023-05-23T01:58:15;98983.75;;;20.28;49.47
67740;BME280;54536;50.090;14.420;2023-05-23T02:00:42;98988.28;;;20.28;49.68
67740;BME280;54536;50.090;14.420;2023-05-23T02:03:08;99004.06;;;20.29;49.73
67740;BME280;54536;50.090;14.420;2023-05-23T02:05:36;99005.28;;;20.33;49.94
67740;BME280;54536;50.090;14.420;2023-05-23T02:08:02;99000.81;;;20.27;49.49
67740;BME280;54536;50.090;14.420;2023-05-23T02:10:28;99007.78;;;20.28;49.79
67740;BME280;54536;50.090;14.420;2023-05-23T02:12:54;99012.75;;;20.11;50.03
67740;BME280;54536;50.090;14.420;2023-05-23T02:15:20;99013.16;;;20.02;49.93
67740;BME280;54536;50.090;14.420;2023-05-23T02:17:47;99018.09;;;19.85;51.29
67740;BME280;54536;50.090;14.420;2023-05-23T02:20:13;99018.28;;;19.90;50.93
67740;BME280;54536;50.090;14.420;2023-05-23T02:22:39;99022.19;;;19.87;50.78
67740;BME280;54536;50.090;14.420;2023-05-23T02:25:06;99019.31;;;19.89;50.64
67740;BME280;54536;50.090;14.420;2023-05-23T02:27:33;99021.59;;;19.79;51.19
67740;BME280;54536;50.090;14.420;2023-05-23T02:29:59;99030.59;;;19.84;50.67
67740;BME280;54536;50.090;14.420;2023-05-23T02:32:28;99020.72;;;19.72;50.42
67740;BME280;54536;50.090;14.420;2023-05-23T02:34:54;99021.59;;;19.66;49.75
67740;BME280;54536;50.090;14.420;2023-05-23T02:37:21;99034.66;;;19.60;49.30
67740;BME280;54536;50.090;14.420;2023-05-23T02:39:47;99021.97;;;19.62;49.25
67740;BME280;54536;50.090;14.420;2023-05-23T02:42:13;99029.94;;;19.49;48.89
67740;BME280;54536;50.090;14.420;2023-05-23T02:44:39;99026.00;;;19.45;49.66
67740;BME280;54536;50.090;14.420;2023-05-23T02:47:06;99012.88;;;19.37;49.21
67740;BME280;54536;50.090;14.420;2023-05-23T02:49:32;99016.16;;;19.32;49.71
67740;BME280;54536;50.090;14.420;2023-05-23T02:51:58;99021.69;;;19.31;49.75
67740;BME280;54536;50.090;14.420;2023-05-23T02:54:24;99013.69;;;19.24;50.29
67740;BME280;54536;50.090;14.420;2023-05-23T02:56:51;99007.94;;;19.27;50.41
67740;BME280;54536;50.090;14.420;2023-05-23T02:59:19;99000.53;;;19.23;50.02
67740;BME280;54536;50.090;14.420;2023-05-23T03:01:47;99000.13;;;19.19;50.11
67740;BME280;54536;50.090;14.420;2023-05-23T03:04:13;99009.16;;;19.25;49.93
67740;BME280;54536;50.090;14.420;2023-05-23T03:06:39;99002.34;;;19.09;50.16
67740;BME280;54536;50.090;14.420;2023-05-23T03:09:08;98999.91;;;19.07;50.33
67740;BME280;54536;50.090;14.420;2023-05-23T03:11:35;98996.81;;;18.97;51.40
67740;BME280;54536;50.090;14.420;2023-05-23T03:14:01;99002.94;;;18.98;51.06
67740;BME280;54536;50.090;14.420;2023-05-23T03:16:28;98995.75;;;18.91;51.10
67740;BME280;54536;50.090;14.420;2023-05-23T03:18:54;98989.78;;;18.89;50.98
67740;BME280;54536;50.090;14.420;2023-05-23T03:21:21;98982.81;;;18.88;51.24
67740;BME280;54536;50.090;14.420;2023-05-23T03:23:47;98980.41;;;18.93;50.75
67740;BME280;54536;50.090;14.420;2023-05-23T03:26:13;98987.50;;;18.80;51.43
67740;BME280;54536;50.090;14.420;2023-05-23T03:28:42;98984.66;;;18.81;52.06
67740;BME280;54536;50.090;14.420;2023-05-23T03:31:08;98984.28;;;18.98;50.77
67740;BME280;54536;50.090;14.420;2023-05-23T03:33:34;98975.09;;;19.00;50.91
67740;BME280;54536;50.090;14.420;2023-05-23T03:36:01;98974.25;;;19.06;51.07
67740;BME280;54536;50.090;14.420;2023-05-23T03:38:27;98970.59;;;19.07;51.08
67740;BME280;54536;50.090;14.420;2023-05-23T03:40:54;98967.28;;;18.99;51.12
67740;BME280;54536;50.090;14.420;2023-05-23T03:43:20;98973.06;;;19.15;50.90
67740;BME280;54536;50.090;14.420;2023-05-23T03:45:46;98972.06;;;19.30;50.05
67740;BME280;54536;50.090;14.420;2023-05-23T03:48:12;98972.25;;;19.35;49.79
67740;BME280;54536;50.090;14.420;2023-05-23T03:50:39;98964.50;;;19.40;50.23
67740;BME280;54536;50.090;14.420;2023-05-23T03:53:05;98965.69;;;19.31;49.66
67740;BME280;54536;50.090;14.420;2023-05-23T03:55:32;98962.41;;;19.35;49.83
67740;BME280;54536;50.090;14.420;2023-05-23T03:57:59;98966.72;;;19.23;50.23
67740;BME280;54536;50.090;14.420;2023-05-23T04:00:25;98961.41;;;19.30;49.64
67740;BME280;54536;50.090;14.420;2023-05-23T04:02:52;98963.66;;;19.33;49.68
67740;BME280;54536;50.090;14.420;2023-05-23T04:05:18;98963.03;;;19.37;49.08
67740;BME280;54536;50.090;14.420;2023-05-23T04:07:45;98968.38;;;19.31;48.83
67740;BME280;54536;50.090;14.420;2023-05-23T04:10:12;98957.50;;;19.32;49.38
67740;BME280;54536;50.090;14.420;2023-05-23T04:12:38;98963.25;;;19.42;48.70
67740;BME280;54536;50.090;14.420;2023-05-23T04:15:07;98954.81;;;19.32;49.12
67740;BME280;54536;50.090;14.420;2023-05-23T04:17:33;98961.41;;;19.56;48.37
67740;BME280;54536;50.090;14.420;2023-05-23T04:20:00;98961.81;;;19.60;48.71
67740;BME280;54536;50.090;14.420;2023-05-23T04:22:26;98968.19;;;19.59;48.52
67740;BME280;54536;50.090;14.420;2023-05-23T04:24:52;98971.06;;;19.57;49.11
67740;BME280;54536;50.090;14.420;2023-05-23T04:27:19;98979.47;;;19.61;48.80
67740;BME280;54536;50.090;14.420;2023-05-23T04:29:47;98976.78;;;19.61;48.51
67740;BME280;54536;50.090;14.420;2023-05-23T04:32:13;98965.72;;;19.57;48.67
67740;BME280;54536;50.090;14.420;2023-05-23T04:34:41;98966.94;;;19.55;48.42
67740;BME280;54536;50.090;14.420;2023-05-23T04:37:09;98966.75;;;19.50;48.76
67740;BME280;54536;50.090;14.420;2023-05-23T04:39:36;98962.22;;;19.44;49.01
67740;BME280;54536;50.090;14.420;2023-05-23T04:42:03;98964.72;;;19.65;48.12
67740;BME280;54536;50.090;14.420;2023-05-23T04:44:29;98964.13;;;19.70;47.97
67740;BME280;54536;50.090;14.420;2023-05-23T04:46:55;98961.22;;;19.71;47.92
67740;BME280;54536;50.090;14.420;2023-05-23T04:49:22;98957.75;;;19.77;48.10
67740;BME280;54536;50.090;14.420;2023-05-23T04:51:48;98948.72;;;19.65;47.72
67740;BME280;54536;50.090;14.420;2023-05-23T04:54:14;98949.94;;;19.82;46.97
67740;BME280;54536;50.090;14.420;2023-05-23T04:56:40;98950.13;;;19.87;45.77
67740;BME280;54536;50.090;14.420;2023-05-23T04:59:07;98948.72;;;19.92;46.16
67740;BME280;54536;50.090;14.420;2023-05-23T05:01:36;98944.38;;;19.97;45.28
67740;BME280;54536;50.090;14.420;2023-05-23T05:04:05;98927.13;;;19.93;45.13
67740;BME280;54536;50.090;14.420;2023-05-23T05:06:32;98933.91;;;20.02;45.99
67740;BME280;54536;50.090;14.420;2023-05-23T05:08:58;98931.28;;;19.82;46.45
67740;BME280;54536;50.090;14.420;2023-05-23T05:11:25;98929.00;;;19.86;46.42
67740;BME280;54536;50.090;14.420;2023-05-23T05:13:52;98923.88;;;19.78;46.69
67740;BME280;54536;50.090;14.420;2023-05-23T05:16:18;98922.88;;;19.72;47.07
67740;BME280;54536;50.090;14.420;2023-05-23T05:18:44;98924.28;;;19.81;46.80
67740;BME280;54536;50.090;14.420;2023-05-23T05:21:10;98937.63;;;19.81;47.42
67740;BME280;54536;50.090;14.420;2023-05-23T05:23:37;98936.38;;;19.84;47.25
67740;BME280;54536;50.090;14.420;2023-05-23T05:26:03;98941.94;;;19.82;46.73
67740;BME280;54536;50.090;14.420;2023-05-23T05:28:30;98942.13;;;19.87;46.46
67740;BME280;54536;50.090;14.420;2023-05-23T05:30:56;98947.03;;;19.97;46.16
67740;BME280;54536;50.090;14.420;2023-05-23T05:33:23;98944.59;;;20.02;45.92
67740;BME280;54536;50.090;14.420;2023-05-23T05:35:50;98954.47;;;19.88;46.19
67740;BME280;54536;50.090;14.420;2023-05-23T05:38:19;98955.44;;;20.07;46.25
67740;BME280;54536;50.090;14.420;2023-05-23T05:40:45;98957.28;;;20.07;47.68
67740;BME280;54536;50.090;14.420;2023-05-23T05:43:11;98958.09;;;20.07;48.29
67740;BME280;54536;50.090;14.420;2023-05-23T05:45:38;98967.53;;;20.17;48.40
67740;BME280;54536;50.090;14.420;2023-05-23T05:48:05;98963.44;;;20.27;47.81
67740;BME280;54536;50.090;14.420;2023-05-23T05:50:30;98963.97;;;20.43;47.25
67740;BME280;54536;50.090;14.420;2023-05-23T05:52:57;98967.31;;;20.25;47.17
67740;BME280;54536;50.090;14.420;2023-05-23T05:55:23;98966.66;;;20.43;47.18
67740;BME280;54536;50.090;14.420;2023-05-23T05:57:49;98963.78;;;20.44;46.74
67740;BME280;54536;50.090;14.420;2023-05-23T06:00:16;98970.56;;;20.40;47.00
67740;BME280;54536;50.090;14.420;2023-05-23T06:02:45;98961.31;;;20.43;47.33
67740;BME280;54536;50.090;14.420;2023-05-23T06:05:19;98965.19;;;20.60;46.89
67740;BME280;54536;50.090;14.420;2023-05-23T06:07:48;98970.66;;;20.78;46.03
67740;BME280;54536;50.090;14.420;2023-05-23T06:10:15;98978.19;;;20.95;45.76
67740;BME280;54536;50.090;14.420;2023-05-23T06:12:41;98973.38;;;21.10;45.90
67740;BME280;54536;50.090;14.420;2023-05-23T06:15:08;98978.44;;;21.18;46.01
67740;BME280;54536;50.090;14.420;2023-05-23T06:17:36;98983.34;;;21.28;45.69
67740;BME280;54536;50.090;14.420;2023-05-23T06:20:05;98978.78;;;21.35;44.95
67740;BME280;54536;50.090;14.420;2023-05-23T06:22:33;98987.53;;;21.17;46.92
67740;BME280;54536;50.090;14.420;2023-05-23T06:24:59;98997.81;;;21.14;47.24
67740;BME280;54536;50.090;14.420;2023-05-23T06:27:25;98994.88;;;21.22;47.01
67740;BME280;54536;50.090;14.420;2023-05-23T06:29:52;98996.19;;;21.13;47.61
67740;BME280;54536;50.090;14.420;2023-05-23T06:32:18;98999.09;;;21.04;48.09
67740;BME280;54536;50.090;14.420;2023-05-23T06:34:44;98991.25;;;21.16;47.81
67740;BME280;54536;50.090;14.420;2023-05-23T06:37:10;98984.91;;;21.04;48.67
67740;BME280;54536;50.090;14.420;2023-05-23T06:39:37;98992.13;;;21.03;48.37
67740;BME280;54536;50.090;14.420;2023-05-23T06:42:03;98995.63;;;21.04;48.27
67740;BME280;54536;50.090;14.420;2023-05-23T06:44:29;99005.88;;;21.07;48.31
67740;BME280;54536;50.090;14.420;2023-05-23T06:46:56;99012.03;;;21.08;48.31
67740;BME280;54536;50.090;14.420;2023-05-23T06:49:24;99009.38;;;21.08;48.08
67740;BME280;54536;50.090;14.420;2023-05-23T06:51:51;99013.50;;;21.03;48.07
67740;BME280;54536;50.090;14.420;2023-05-23T06:54:18;99017.44;;;21.01;47.97
67740;BME280;54536;50.090;14.420;2023-05-23T06:56:44;99004.84;;;21.08;47.59
67740;BME280;54536;50.090;14.420;2023-05-23T06:59:11;99011.59;;;21.17;47.59
67740;BME280;54536;50.090;14.420;2023-05-23T07:01:37;99008.91;;;21.17;47.16
67740;BME280;54536;50.090;14.420;2023-05-23T07:04:04;99012.59;;;21.23;46.83
67740;BME280;54536;50.090;14.420;2023-05-23T07:06:30;99009.28;;;21.21;46.42
67740;BME280;54536;50.090;14.420;2023-05-23T07:08:57;99016.25;;;21.28;46.83
67740;BME280;54536;50.090;14.420;2023-05-23T07:11:23;99012.31;;;21.38;46.30
67740;BME280;54536;50.090;14.420;2023-05-23T07:13:50;99019.03;;;21.47;45.46
67740;BME280;54536;50.090;14.420;2023-05-23T07:16:16;99003.47;;;21.37;45.68
67740;BME280;54536;50.090;14.420;2023-05-23T07:18:42;99017.66;;;21.38;45.51
67740;BME280;54536;50.090;14.420;2023-05-23T07:21:08;99015.56;;;21.46;45.33
67740;BME280;54536;50.090;14.420;2023-05-23T07:23:34;99020.53;;;21.43;45.30
67740;BME280;54536;50.090;14.420;2023-05-23T07:26:01;99015.16;;;21.43;45.14
67740;BME280;54536;50.090;14.420;2023-05-23T07:28:28;99020.91;;;21.46;44.71
67740;BME280;54536;50.090;14.420;2023-05-23T07:30:54;99019.09;;;21.40;44.08
67740;BME280;54536;50.090;14.420;2023-05-23T07:33:22;99029.09;;;21.51;44.54
67740;BME280;54536;50.090;14.420;2023-05-23T07:35:49;99032.56;;;21.59;43.67
67740;BME280;54536;50.090;14.420;2023-05-23T07:38:15;99025.88;;;21.68;43.94
67740;BME280;54536;50.090;14.420;2023-05-23T07:40:42;99027.97;;;21.66;44.50
67740;BME280;54536;50.090;14.420;2023-05-23T07:43:08;99020.34;;;21.69;44.42
67740;BME280;54536;50.090;14.420;2023-05-23T07:45:34;99030.31;;;21.81;44.28
67740;BME280;54536;50.090;14.420;2023-05-23T07:48:00;99034.38;;;21.90;44.43
67740;BME280;54536;50.090;14.420;2023-05-23T07:50:27;99031.19;;;22.00;44.01
67740;BME280;54536;50.090;14.420;2023-05-23T07:52:53;99024.81;;;22.01;44.12
67740;BME280;54536;50.090;14.420;2023-05-23T07:55:20;99030.75;;;22.03;44.35
67740;BME280;54536;50.090;14.420;2023-05-23T07:57:46;99030.13;;;22.07;44.27
67740;BME280;54536;50.090;14.420;2023-05-23T08:00:13;99040.06;;;22.25;44.25
67740;BME280;54536;50.090;14.420;2023-05-23T08:02:39;99036.06;;;22.34;44.33
67740;BME280;54536;50.090;14.420;2023-05-23T08:05:07;99047.31;;;22.43;44.33
67740;BME280;54536;50.090;14.420;2023-05-23T08:07:33;99040.34;;;22.60;44.02
67740;BME280;54536;50.090;14.420;2023-05-23T08:09:59;99040.63;;;22.71;43.30
67740;BME280;54536;50.090;14.420;2023-05-23T08:12:25;99042.63;;;22.75;43.84
67740;BME280;54536;50.090;14.420;2023-05-23T08:14:52;99039.50;;;22.78;43.30
67740;BME280;54536;50.090;14.420;2023-05-23T08:17:18;99042.34;;;22.83;43.43
67740;BME280;54536;50.090;14.420;2023-05-23T08:19:45;99046.22;;;22.87;43.23
67740;BME280;54536;50.090;14.420;2023-05-23T08:22:11;99047.72;;;22.83;43.29
67740;BME280;54536;50.090;14.420;2023-05-23T08:24:38;99048.16;;;22.80;43.31
67740;BME280;54536;50.090;14.420;2023-05-23T08:27:04;99052.13;;;22.96;43.42
67740;BME280;54536;50.090;14.420;2023-05-23T08:29:31;99063.09;;;22.88;43.05
67740;BME280;54536;50.090;14.420;2023-05-23T08:32:00;99056.47;;;22.90;43.28
67740;BME280;54536;50.090;14.420;2023-05-23T08:34:26;99059.94;;;22.98;43.14
67740;BME280;54536;50.090;14.420;2023-05-23T08:36:52;99063.44;;;22.98;43.22
67740;BME280;54536;50.090;14.420;2023-05-23T08:39:18;99058.66;;;23.00;42.95
67740;BME280;54536;50.090;14.420;2023-05-23T08:41:44;99067.41;;;22.96;43.06
67740;BME280;54536;50.090;14.420;2023-05-23T08:44:12;99071.97;;;22.88;43.87
67740;BME280;54536;50.090;14.420;2023-05-23T08:46:43;99067.44;;;22.89;43.91
67740;BME280;54536;50.090;14.420;2023-05-23T08:49:12;99070.84;;;22.78;43.98
67740;BME280;54536;50.090;14.420;2023-05-23T08:51:41;99078.47;;;22.81;43.61
67740;BME280;54536;50.090;14.420;2023-05-23T08:54:09;99083.44;;;22.77;43.89
67740;BME280;54536;50.090;14.420;2023-05-23T08:56:38;99088.56;;;22.60;44.89
67740;BME280;54536;50.090;14.420;2023-05-23T08:59:07;99098.75;;;22.52;44.85
67740;BME280;54536;50.090;14.420;2023-05-23T09:01:35;99107.75;;;22.39;45.20
67740;BME280;54536;50.090;14.420;2023-05-23T09:04:05;99102.06;;;22.29;45.96
67740;BME280;54536;50.090;14.420;2023-05-23T09:06:31;99095.34;;;22.19;45.99
67740;BME280;54536;50.090;14.420;2023-05-23T09:08:58;99108.22;;;22.04;46.25
67740;BME280;54536;50.090;14.420;2023-05-23T09:11:24;99116.44;;;22.03;49.43
67740;BME280;54536;50.090;14.420;2023-05-23T09:13:51;99121.94;;;21.83;51.90
67740;BME280;54536;50.090;14.420;2023-05-23T09:16:18;99118.81;;;21.54;54.99
67740;BME280;54536;50.090;14.420;2023-05-23T09:18:45;99109.03;;;21.35;56.41
67740;BME280;54536;50.090;14.420;2023-05-23T09:21:12;99111.50;;;21.36;54.54
67740;BME280;54536;50.090;14.420;2023-05-23T09:23:40;99109.22;;;21.33;54.35
67740;BME280;54536;50.090;14.420;2023-05-23T09:26:09;99109.09;;;21.15;54.26
67740;BME280;54536;50.090;14.420;2023-05-23T09:28:37;99110.13;;;21.14;55.37
67740;BME280;54536;50.090;14.420;2023-05-23T09:31:06;99115.97;;;20.91;55.77
67740;BME280;54536;50.090;14.420;2023-05-23T09:33:44;99113.28;;;20.97;54.70
67740;BME280;54536;50.090;14.420;2023-05-23T09:36:15;99118.81;;;20.96;55.60
67740;BME280;54536;50.090;14.420;2023-05-23T09:38:44;99126.06;;;20.82;55.27
67740;BME280;54536;50.090;14.420;2023-05-23T09:41:11;99129.31;;;20.97;55.23
67740;BME280;54536;50.090;14.420;2023-05-23T09:43:38;99128.94;;;20.87;55.39
67740;BME280;54536;50.090;14.420;2023-05-23T09:46:11;99124.19;;;20.89;54.65
67740;BME280;54536;50.090;14.420;2023-05-23T09:48:38;99133.03;;;20.90;54.92
67740;BME280;54536;50.090;14.420;2023-05-23T09:51:05;99127.28;;;20.93;55.26
67740;BME280;54536;50.090;14.420;2023-05-23T09:53:32;99125.81;;;20.97;53.94
67740;BME280;54536;50.090;14.420;2023-05-23T09:55:58;99134.63;;;21.04;54.13
67740;BME280;54536;50.090;14.420;2023-05-23T09:58:27;99130.09;;;21.04;54.34
67740;BME280;54536;50.090;14.420;2023-05-23T10:00:56;99121.28;;;21.04;54.52
67740;BME280;54536;50.090;14.420;2023-05-23T10:03:29;99130.34;;;21.03;54.35
67740;BME280;54536;50.090;14.420;2023-05-23T10:05:59;99132.56;;;21.13;54.61
67740;BME280;54536;50.090;14.420;2023-05-23T10:08:36;99127.22;;;21.13;54.53
67740;BME280;54536;50.090;14.420;2023-05-23T10:13:43;99124.69;;;21.24;55.12
67740;BME280;54536;50.090;14.420;2023-05-23T10:16:24;99125.91;;;21.28;56.26
67740;BME280;54536;50.090;14.420;2023-05-23T10:18:57;99125.69;;;21.30;55.44
67740;BME280;54536;50.090;14.420;2023-05-23T10:21:58;99125.47;;;21.38;55.83
67740;BME280;54536;50.090;14.420;2023-05-23T10:24:26;99123.00;;;21.43;55.49
67740;BME280;54536;50.090;14.420;2023-05-23T10:26:53;99108.25;;;21.66;55.35
67740;BME280;54536;50.090;14.420;2023-05-23T10:29:24;99115.00;;;21.75;56.04
67740;BME280;54536;50.090;14.420;2023-05-23T10:31:52;99116.50;;;21.96;55.28
67740;BME280;54536;50.090;14.420;2023-05-23T10:37:39;99113.91;;;22.14;55.66
67740;BME280;54536;50.090;14.420;2023-05-23T10:42:53;99107.66;;;22.27;55.28
67740;BME280;54536;50.090;14.420;2023-05-23T10:45:23;99098.56;;;22.28;55.26
67740;BME280;54536;50.090;14.420;2023-05-23T10:47:52;99104.53;;;22.30;55.57
67740;BME280;54536;50.090;14.420;2023-05-23T10:50:35;99095.44;;;22.31;55.33
67740;BME280;54536;50.090;14.420;2023-05-23T10:53:05;99098.50;;;22.35;54.98
67740;BME280;54536;50.090;14.420;2023-05-23T10:55:33;99100.00;;;22.31;55.13
67740;BME280;54536;50.090;14.420;2023-05-23T10:58:19;99102.56;;;22.19;55.56
67740;BME280;54536;50.090;14.420;2023-05-23T11:00:58;99100.56;;;22.08;55.35
67740;BME280;54536;50.090;14.420;2023-05-23T11:06:30;99113.34;;;22.06;56.37
67740;BME280;54536;50.090;14.420;2023-05-23T11:14:32;99109.63;;;22.07;55.52
67740;BME280;54536;50.090;14.420;2023-05-23T11:17:15;99119.56;;;22.00;55.87
67740;BME280;54536;50.090;14.420;2023-05-23T11:20:04;99114.47;;;21.91;56.37
67740;BME280;54536;50.090;14.420;2023-05-23T11:22:33;99119.94;;;21.78;56.95
67740;BME280;54536;50.090;14.420;2023-05-23T11:25:06;99123.19;;;21.80;56.65
67740;BME280;54536;50.090;14.420;2023-05-23T11:27:38;99114.56;;;21.78;56.43
67740;BME280;54536;50.090;14.420;2023-05-23T11:30:16;99121.50;;;21.86;56.35
67740;BME280;54536;50.090;14.420;2023-05-23T11:32:53;99117.16;;;21.91;55.68
67740;BME280;54536;50.090;14.420;2023-05-23T11:35:22;99120.69;;;21.85;55.37
67740;BME280;54536;50.090;14.420;2023-05-23T11:37:49;99120.69;;;21.85;56.13
67740;BME280;54536;50.090;14.420;2023-05-23T11:40:26;99110.56;;;21.87;55.90
67740;BME280;54536;50.090;14.420;2023-05-23T11:42:54;99107.28;;;21.92;56.03
67740;BME280;54536;50.090;14.420;2023-05-23T11:45:24;99104.31;;;22.00;56.16
67740;BME280;54536;50.090;14.420;2023-05-23T11:47:55;99100.22;;;21.97;55.74
67740;BME280;54536;50.090;14.420;2023-05-23T11:50:22;99104.44;;;22.12;55.80
67740;BME280;54536;50.090;14.420;2023-05-23T11:52:50;99094.91;;;22.23;55.11
67740;BME280;54536;50.090;14.420;2023-05-23T11:55:18;99107.28;;;22.24;55.11
67740;BME280;54536;50.090;14.420;2023-05-23T11:57:46;99112.28;;;22.38;54.37
67740;BME280;54536;50.090;14.420;2023-05-23T12:00:13;99108.88;;;22.50;53.97
67740;BME280;54536;50.090;14.420;2023-05-23T12:02:41;99104.09;;;22.77;54.13
67740;BME280;54536;50.090;14.420;2023-05-23T12:05:12;99105.06;;;23.19;52.53
67740;BME280;54536;50.090;14.420;2023-05-23T12:07:48;99104.72;;;23.46;51.39
67740;BME280;54536;50.090;14.420;2023-05-23T12:10:16;99096.84;;;23.63;51.14
67740;BME280;54536;50.090;14.420;2023-05-23T12:12:43;99088.09;;;23.67;50.41
67740;BME280;54536;50.090;14.420;2023-05-23T12:15:11;99084.00;;;23.95;49.80
67740;BME280;54536;50.090;14.420;2023-05-23T12:17:43;99090.34;;;24.24;49.22
67740;BME280;54536;50.090;14.420;2023-05-23T12:20:11;99089.28;;;24.25;48.86
67740;BME280;54536;50.090;14.420;2023-05-23T12:22:38;99085.00;;;24.47;48.13
67740;BME280;54536;50.090;14.420;2023-05-23T12:25:08;99086.13;;;24.98;46.84
67740;BME280;54536;50.090;14.420;2023-05-23T12:27:38;99084.72;;;24.84;47.56
67740;BME280;54536;50.090;14.420;2023-05-23T12:30:14;99083.53;;;25.04;46.78
67740;BME280;54536;50.090;14.420;2023-05-23T12:32:43;99083.41;;;26.13;44.42
67740;BME280;54536;50.090;14.420;2023-05-23T12:35:13;99079.81;;;25.62;45.32
67740;BME280;54536;50.090;14.420;2023-05-23T12:37:40;99086.03;;;25.34;45.62
67740;BME280;54536;50.090;14.420;2023-05-23T12:40:15;99084.34;;;25.16;46.17
67740;BME280;54536;50.090;14.420;2023-05-23T12:42:53;99089.03;;;24.97;44.53
67740;BME280;54536;50.090;14.420;2023-05-23T12:45:30;99087.56;;;24.77;44.90
67740;BME280;54536;50.090;14.420;2023-05-23T12:47:58;99083.13;;;24.71;45.21
67740;BME280;54536;50.090;14.420;2023-05-23T12:50:24;99080.31;;;24.55;45.13
67740;BME280;54536;50.090;14.420;2023-05-23T12:52:51;99087.56;;;24.42;45.90
67740;BME280;54536;50.090;14.420;2023-05-23T12:55:18;99075.63;;;24.38;46.16
67740;BME280;54536;50.090;14.420;2023-05-23T12:57:45;99079.97;;;24.63;45.66
67740;BME280;54536;50.090;14.420;2023-05-23T13:00:11;99081.34;;;24.65;45.47
67740;BME280;54536;50.090;14.420;2023-05-23T13:02:38;99076.09;;;24.35;46.27
67740;BME280;54536;50.090;14.420;2023-05-23T13:05:07;99096.06;;;24.16;46.36
67740;BME280;54536;50.090;14.420;2023-05-23T13:07:36;99098.97;;;23.91;47.68
67740;BME280;54536;50.090;14.420;2023-05-23T13:10:03;99100.69;;;23.97;46.95
67740;BME280;54536;50.090;14.420;2023-05-23T13:12:30;99097.81;;;24.10;47.07
67740;BME280;54536;50.090;14.420;2023-05-23T13:14:57;99102.97;;;24.35;46.58
67740;BME280;54536;50.090;14.420;2023-05-23T13:17:24;99097.19;;;25.26;44.61
67740;BME280;54536;50.090;14.420;2023-05-23T13:19:50;99092.69;;;25.60;44.15
67740;BME280;54536;50.090;14.420;2023-05-23T13:22:17;99086.00;;;25.91;43.42